Time;durP1;ratioP1;P1;durP2;ratioP2;P2;SDS_P1;SDS_P2;PMS_P1;PMS_P2;Temp;Humidity;BMP_temperature;BMP_pressure;BME280_temperature;BME280_humidity;BME280_pressure;Samples;Min_cycle;Max_cycle;Signal;HPM_P1;HPM_P2
2023/08/04 16:41:21;;;;;;;4.68;1.60;;;;;;;;;;4911317;29;20067;-88
2023/08/04 16:43:46;;;;;;;5.10;1.67;;;;;;;;;;4928887;29;20560;-84
2023/08/04 16:46:13;;;;;;;5.10;1.60;;;;;;;;;;4913203;29;20036;-85
2023/08/04 16:48:39;;;;;;;4.88;1.42;;;;;;;;;;4920417;29;20480;-92
2023/08/04 16:51:06;;;;;;;5.55;1.60;;;;;;;;;;4915516;29;20028;-86
2023/08/04 16:53:32;;;;;;;4.50;1.83;;;;;;;;;;4916473;29;20400;-86
2023/08/04 16:56:05;;;;;;;6.13;1.58;;;;;;;;;;4910161;29;20036;-85
2023/08/04 16:58:31;;;;;;;5.45;1.40;;;;;;;;;;4914609;29;20503;-91
2023/08/04 17:01:01;;;;;;;6.05;1.50;;;;;;;;;;4914902;29;20032;-92
2023/08/04 17:03:29;;;;;;;5.97;1.67;;;;;;;;;;4911592;29;20424;-92
2023/08/04 17:05:55;;;;;;;5.65;1.70;;;;;;;;;;4910777;29;20036;-88
2023/08/04 17:08:21;;;;;;;3.63;1.40;;;;;;;;;;4924932;29;20028;-86
2023/08/04 17:10:47;;;;;;;4.18;1.83;;;;;;;;;;4916283;29;20060;-88
2023/08/04 17:13:13;;;;;;;5.05;1.38;;;;;;;;;;4915592;29;20036;-85
2023/08/04 17:15:39;;;;;;;6.63;1.60;;;;;;;;;;4915949;29;20103;-93
2023/08/04 17:18:05;;;;;;;6.00;1.67;;;;;;;;;;4916586;29;20024;-83
2023/08/04 17:20:31;;;;;;;2.35;1.25;;;;;;;;;;4916530;29;20080;-84
2023/08/04 17:22:57;;;;;;;7.18;1.83;;;;;;;;;;4916331;29;20028;-88
2023/08/04 17:25:24;;;;;;;6.10;1.35;;;;;;;;;;4915490;29;20522;-83
2023/08/04 17:27:50;;;;;;;6.15;1.63;;;;;;;;;;4907095;29;20035;-83
2023/08/04 17:30:17;;;;;;;3.67;1.48;;;;;;;;;;4915287;29;20040;-85
2023/08/04 17:32:44;;;;;;;5.47;1.77;;;;;;;;;;4913424;29;20052;-82
2023/08/04 17:35:10;;;;;;;5.07;1.60;;;;;;;;;;4917470;29;20107;-86
2023/08/04 17:37:37;;;;;;;4.45;1.55;;;;;;;;;;4915758;29;20036;-85
2023/08/04 17:40:03;;;;;;;6.63;2.00;;;;;;;;;;4917009;29;20028;-90
2023/08/04 17:42:29;;;;;;;3.92;1.63;;;;;;;;;;4916121;29;20035;-86
2023/08/04 17:44:56;;;;;;;3.15;1.48;;;;;;;;;;4915671;29;20122;-84
2023/08/04 17:47:22;;;;;;;3.05;1.60;;;;;;;;;;4916969;29;20056;-89
2023/08/04 17:49:50;;;;;;;7.78;1.65;;;;;;;;;;4915825;29;20097;-85
2023/08/04 17:52:16;;;;;;;7.38;1.60;;;;;;;;;;4915759;29;20050;-86
2023/08/04 17:54:44;;;;;;;3.47;1.63;;;;;;;;;;4914758;29;20056;-85
2023/08/04 17:57:11;;;;;;;6.47;1.90;;;;;;;;;;4914716;29;20020;-88
2023/08/04 17:59:37;;;;;;;5.47;1.70;;;;;;;;;;4912373;29;20107;-84
2023/08/04 18:02:03;;;;;;;8.23;1.85;;;;;;;;;;4912961;29;20028;-83
2023/08/04 18:04:29;;;;;;;4.25;1.75;;;;;;;;;;4914278;29;20515;-86
2023/08/04 18:06:55;;;;;;;4.13;1.60;;;;;;;;;;4914767;29;20518;-88
2023/08/04 18:09:21;;;;;;;4.88;1.70;;;;;;;;;;4916042;29;20107;-84
2023/08/04 18:11:47;;;;;;;5.40;1.70;;;;;;;;;;4914800;29;20024;-84
2023/08/04 18:14:13;;;;;;;3.65;1.70;;;;;;;;;;4906022;29;20047;-83
2023/08/04 18:16:39;;;;;;;5.95;1.50;;;;;;;;;;4914130;29;20035;-81
2023/08/04 18:19:05;;;;;;;3.50;1.63;;;;;;;;;;4910677;29;20039;-81
2023/08/04 18:21:31;;;;;;;5.07;1.40;;;;;;;;;;4915835;29;20075;-83
2023/08/04 18:23:57;;;;;;;5.03;1.55;;;;;;;;;;4914361;29;20112;-85
2023/08/04 18:26:23;;;;;;;6.68;1.75;;;;;;;;;;4911770;29;20075;-84
2023/08/04 18:28:49;;;;;;;7.10;1.80;;;;;;;;;;4914410;29;20110;-85
2023/08/04 18:31:15;;;;;;;8.70;1.80;;;;;;;;;;4914832;29;20056;-82
2023/08/04 18:33:41;;;;;;;4.25;1.80;;;;;;;;;;4912347;29;20040;-87
2023/08/04 18:36:07;;;;;;;3.92;1.80;;;;;;;;;;4913746;29;20411;-83
2023/08/04 18:38:33;;;;;;;7.78;1.90;;;;;;;;;;4914193;29;20491;-83
2023/08/04 18:41:03;;;;;;;5.10;1.40;;;;;;;;;;4912017;29;20040;-81
2023/08/04 18:43:29;;;;;;;4.85;1.80;;;;;;;;;;4912494;29;20428;-83
2023/08/04 18:45:55;;;;;;;5.80;1.60;;;;;;;;;;4913656;29;20111;-82
2023/08/04 18:48:21;;;;;;;5.15;1.85;;;;;;;;;;4914523;29;20028;-82
2023/08/04 18:50:47;;;;;;;4.03;1.92;;;;;;;;;;4911787;29;20032;-81
2023/08/04 18:53:13;;;;;;;6.07;1.90;;;;;;;;;;4912246;29;20515;-82
2023/08/04 18:55:40;;;;;;;7.68;1.83;;;;;;;;;;4913971;29;20036;-92
2023/08/04 18:58:05;;;;;;;3.83;1.63;;;;;;;;;;4913611;29;20428;-81
2023/08/04 19:00:31;;;;;;;5.03;1.50;;;;;;;;;;4914394;29;20123;-82
2023/08/04 19:02:58;;;;;;;2.13;1.50;;;;;;;;;;4914027;29;20024;-88
2023/08/04 19:05:23;;;;;;;5.95;1.80;;;;;;;;;;4913862;29;20048;-87
2023/08/04 19:07:49;;;;;;;5.20;1.95;;;;;;;;;;4912010;29;20036;-82
2023/08/04 19:10:15;;;;;;;6.90;1.70;;;;;;;;;;4912164;29;20039;-82
2023/08/04 19:12:41;;;;;;;4.47;1.80;;;;;;;;;;4911815;29;20040;-87
2023/08/04 19:15:08;;;;;;;5.15;1.90;;;;;;;;;;4896027;29;20032;-88
2023/08/04 19:17:34;;;;;;;4.50;1.70;;;;;;;;;;4901259;29;20396;-81
2023/08/04 19:20:00;;;;;;;5.90;1.80;;;;;;;;;;4914007;29;20485;-83
2023/08/04 19:22:26;;;;;;;12.23;1.90;;;;;;;;;;4909806;29;20222;-82
2023/08/04 19:24:52;;;;;;;3.75;1.60;;;;;;;;;;4911723;29;20040;-82
2023/08/04 19:27:19;;;;;;;5.53;1.70;;;;;;;;;;4911590;29;20437;-82
2023/08/04 19:29:45;;;;;;;4.18;1.70;;;;;;;;;;4898010;29;20559;-82
2023/08/04 19:32:10;;;;;;;9.02;2.35;;;;;;;;;;4897312;29;20107;-82
2023/08/04 19:34:37;;;;;;;10.88;1.58;;;;;;;;;;4912575;29;20044;-82
2023/08/04 19:37:03;;;;;;;5.15;1.63;;;;;;;;;;4913828;29;20035;-81
2023/08/04 19:39:29;;;;;;;7.35;1.83;;;;;;;;;;4912923;29;20032;-81
2023/08/04 19:41:55;;;;;;;4.55;1.70;;;;;;;;;;4911244;29;20036;-81
2023/08/04 19:44:21;;;;;;;5.78;1.95;;;;;;;;;;4911968;29;20084;-84
2023/08/04 19:46:47;;;;;;;5.28;1.80;;;;;;;;;;4912637;29;20388;-82
2023/08/04 19:49:13;;;;;;;4.32;1.67;;;;;;;;;;4910910;29;20036;-91
2023/08/04 19:51:39;;;;;;;6.47;1.70;;;;;;;;;;4911142;29;20028;-81
2023/08/04 19:54:06;;;;;;;8.00;2.05;;;;;;;;;;4913868;29;20384;-90
2023/08/04 19:56:32;;;;;;;4.15;1.60;;;;;;;;;;4911899;29;20024;-82
2023/08/04 19:58:58;;;;;;;7.95;1.88;;;;;;;;;;4911784;29;20570;-83
2023/08/04 20:01:24;;;;;;;4.78;1.95;;;;;;;;;;4912709;29;20047;-88
2023/08/04 20:03:52;;;;;;;6.82;2.25;;;;;;;;;;4911625;29;20456;-82
2023/08/04 20:06:18;;;;;;;6.68;2.05;;;;;;;;;;4912049;29;20032;-81
2023/08/04 20:08:44;;;;;;;4.18;1.92;;;;;;;;;;4911027;29;20024;-81
2023/08/04 20:11:10;;;;;;;5.78;1.75;;;;;;;;;;4911842;29;20064;-81
2023/08/04 20:13:36;;;;;;;5.10;1.90;;;;;;;;;;4912367;29;20078;-81
2023/08/04 20:16:06;;;;;;;9.57;1.80;;;;;;;;;;4910609;29;20423;-81
2023/08/04 20:18:33;;;;;;;3.42;1.85;;;;;;;;;;4911536;29;20024;-80
2023/08/04 20:20:59;;;;;;;8.95;2.17;;;;;;;;;;4925490;29;20059;-81
2023/08/04 20:23:25;;;;;;;6.05;2.20;;;;;;;;;;4911871;29;20020;-83
2023/08/04 20:25:51;;;;;;;6.32;1.70;;;;;;;;;;4912508;29;20075;-81
2023/08/04 20:28:17;;;;;;;5.55;1.55;;;;;;;;;;4911216;29;20446;-81
2023/08/04 20:30:45;;;;;;;6.68;2.08;;;;;;;;;;4912681;29;20042;-81
2023/08/04 20:33:13;;;;;;;6.70;2.08;;;;;;;;;;4912059;29;20044;-81
2023/08/04 20:35:39;;;;;;;6.50;1.88;;;;;;;;;;4912554;29;20031;-81
2023/08/04 20:38:05;;;;;;;5.85;2.00;;;;;;;;;;4912464;29;20025;-83
2023/08/04 20:40:31;;;;;;;12.70;1.85;;;;;;;;;;4923061;29;20063;-80
2023/08/04 20:42:57;;;;;;;5.97;1.77;;;;;;;;;;4931287;29;20059;-81
2023/08/04 20:45:23;;;;;;;6.50;1.60;;;;;;;;;;4931084;29;20171;-80
2023/08/04 20:47:49;;;;;;;4.90;1.88;;;;;;;;;;4931245;29;20031;-82
2023/08/04 20:50:15;;;;;;;5.63;2.25;;;;;;;;;;4911035;29;20028;-86
2023/08/04 20:52:41;;;;;;;4.97;1.80;;;;;;;;;;4912340;29;20059;-82
2023/08/04 20:55:07;;;;;;;7.45;2.13;;;;;;;;;;4913566;29;20032;-81
2023/08/04 20:57:33;;;;;;;7.57;2.10;;;;;;;;;;4926181;29;20028;-82
2023/08/04 20:59:59;;;;;;;3.08;1.80;;;;;;;;;;4912655;29;20035;-81
2023/08/04 21:02:25;;;;;;;6.00;1.73;;;;;;;;;;4926728;29;20481;-82
2023/08/04 21:04:51;;;;;;;5.97;1.75;;;;;;;;;;4909951;29;20020;-83
2023/08/04 21:07:17;;;;;;;7.07;2.13;;;;;;;;;;4911875;29;20054;-87
2023/08/04 21:09:43;;;;;;;8.35;2.78;;;;;;;;;;4912446;29;20036;-84
2023/08/04 21:12:09;;;;;;;9.30;2.13;;;;;;;;;;4913433;29;20036;-85
2023/08/04 21:14:35;;;;;;;7.03;1.90;;;;;;;;;;4913294;29;20044;-84
2023/08/04 21:17:01;;;;;;;12.35;2.70;;;;;;;;;;4906129;29;20038;-85
2023/08/04 21:19:27;;;;;;;9.95;2.28;;;;;;;;;;4912498;29;20024;-84
2023/08/04 21:21:53;;;;;;;12.45;2.65;;;;;;;;;;4912378;29;20040;-84
2023/08/04 21:24:19;;;;;;;5.35;2.08;;;;;;;;;;4911211;29;20498;-85
2023/08/04 21:26:45;;;;;;;5.15;1.90;;;;;;;;;;4912618;29;20035;-83
2023/08/04 21:29:13;;;;;;;9.00;2.42;;;;;;;;;;4911978;29;20032;-84
2023/08/04 21:31:39;;;;;;;6.20;2.15;;;;;;;;;;4912932;29;20033;-84
2023/08/04 21:34:05;;;;;;;8.13;2.28;;;;;;;;;;4914278;29;20392;-84
2023/08/04 21:36:31;;;;;;;4.72;1.83;;;;;;;;;;4914468;29;20032;-84
2023/08/04 21:38:57;;;;;;;8.10;2.20;;;;;;;;;;4907884;29;20056;-84
2023/08/04 21:41:23;;;;;;;11.55;2.28;;;;;;;;;;4896968;29;20533;-84
2023/08/04 21:43:49;;;;;;;6.72;2.13;;;;;;;;;;4911633;29;20115;-85
2023/08/04 21:46:17;;;;;;;7.80;2.45;;;;;;;;;;4915487;29;20032;-84
2023/08/04 21:48:43;;;;;;;8.27;2.80;;;;;;;;;;4913801;29;20032;-85
2023/08/04 21:51:09;;;;;;;4.15;2.05;;;;;;;;;;4915277;29;20043;-84
2023/08/04 21:53:35;;;;;;;9.48;2.25;;;;;;;;;;4915455;29;20119;-86
2023/08/04 21:56:01;;;;;;;5.35;2.22;;;;;;;;;;4915426;29;20355;-84
2023/08/04 21:58:27;;;;;;;4.18;2.20;;;;;;;;;;4915226;29;20032;-83
2023/08/04 22:00:53;;;;;;;8.57;2.17;;;;;;;;;;4915237;29;20107;-84
2023/08/04 22:03:19;;;;;;;8.50;2.60;;;;;;;;;;4907649;29;20064;-84
2023/08/04 22:05:45;;;;;;;5.88;2.25;;;;;;;;;;4899351;29;20070;-84
2023/08/04 22:08:12;;;;;;;6.28;2.55;;;;;;;;;;4916090;29;20032;-84
2023/08/04 22:10:38;;;;;;;5.35;2.08;;;;;;;;;;4915674;29;20031;-86
2023/08/04 22:13:03;;;;;;;6.93;2.53;;;;;;;;;;4915030;29;20032;-84
2023/08/04 22:15:29;;;;;;;5.15;2.30;;;;;;;;;;4908650;29;20029;-85
2023/08/04 22:17:55;;;;;;;8.82;2.13;;;;;;;;;;4910786;29;20024;-84
2023/08/04 22:20:21;;;;;;;4.13;2.10;;;;;;;;;;4910953;29;20443;-88
2023/08/04 22:22:47;;;;;;;11.30;2.75;;;;;;;;;;4915106;29;20029;-84
2023/08/04 22:25:13;;;;;;;6.72;2.53;;;;;;;;;;4913125;29;20059;-84
2023/08/04 22:27:39;;;;;;;8.55;2.38;;;;;;;;;;4915353;29;20083;-84
2023/08/04 22:30:06;;;;;;;6.38;2.47;;;;;;;;;;4913517;29;20424;-84
2023/08/04 22:32:32;;;;;;;7.10;2.60;;;;;;;;;;4914534;29;20024;-84
2023/08/04 22:34:58;;;;;;;5.13;2.10;;;;;;;;;;4914720;29;20373;-87
2023/08/04 22:37:24;;;;;;;11.32;2.45;;;;;;;;;;4914791;29;20029;-84
2023/08/04 22:39:50;;;;;;;5.25;2.20;;;;;;;;;;4912680;29;20404;-84
2023/08/04 22:42:16;;;;;;;9.77;2.50;;;;;;;;;;4914724;29;20025;-83
2023/08/04 22:44:42;;;;;;;6.68;2.20;;;;;;;;;;4913613;29;20036;-85
2023/08/04 22:47:08;;;;;;;5.90;2.40;;;;;;;;;;4913755;29;20043;-90
2023/08/04 22:49:34;;;;;;;5.43;2.20;;;;;;;;;;4914403;29;20618;-85
2023/08/04 22:52:00;;;;;;;6.88;2.33;;;;;;;;;;4898701;29;20032;-83
2023/08/04 22:54:26;;;;;;;5.80;2.20;;;;;;;;;;4928939;29;20134;-92
2023/08/04 22:56:52;;;;;;;5.80;2.50;;;;;;;;;;4914221;29;20028;-85
2023/08/04 22:59:17;;;;;;;6.57;2.60;;;;;;;;;;4913141;29;20051;-83
2023/08/04 23:01:44;;;;;;;8.23;2.38;;;;;;;;;;4913812;29;20028;-84
2023/08/04 23:04:10;;;;;;;4.45;2.13;;;;;;;;;;4913705;29;20404;-84
2023/08/04 23:06:35;;;;;;;7.13;2.50;;;;;;;;;;4914296;29;20503;-84
2023/08/04 23:09:03;;;;;;;7.63;2.55;;;;;;;;;;4912873;29;20087;-84
2023/08/04 23:11:29;;;;;;;8.95;2.75;;;;;;;;;;4912797;29;20028;-84
2023/08/04 23:13:55;;;;;;;6.90;2.53;;;;;;;;;;4913058;29;20048;-84
2023/08/04 23:16:21;;;;;;;6.10;2.50;;;;;;;;;;4913806;29;20076;-85
2023/08/04 23:18:47;;;;;;;9.20;2.50;;;;;;;;;;4913630;29;20032;-83
2023/08/04 23:21:13;;;;;;;5.68;2.40;;;;;;;;;;4914950;29;20028;-84
2023/08/04 23:23:39;;;;;;;5.40;2.33;;;;;;;;;;4913175;29;20526;-85
2023/08/04 23:26:05;;;;;;;6.90;2.33;;;;;;;;;;4913230;29;20799;-84
2023/08/04 23:28:31;;;;;;;9.57;2.67;;;;;;;;;;4913467;29;20075;-84
2023/08/04 23:30:57;;;;;;;3.95;2.40;;;;;;;;;;4912639;29;20389;-84
2023/08/04 23:33:23;;;;;;;4.60;2.50;;;;;;;;;;4913607;29;20040;-85
2023/08/04 23:35:54;;;;;;;5.60;2.80;;;;;;;;;;4913317;29;20075;-83
2023/08/04 23:38:20;;;;;;;6.40;2.47;;;;;;;;;;4913627;29;20028;-83
2023/08/04 23:40:47;;;;;;;8.52;2.58;;;;;;;;;;4914284;29;20051;-84
2023/08/04 23:43:13;;;;;;;9.55;2.40;;;;;;;;;;4897683;29;20032;-87
2023/08/04 23:45:39;;;;;;;5.00;2.30;;;;;;;;;;4899591;29;20039;-85
2023/08/04 23:48:05;;;;;;;5.93;2.30;;;;;;;;;;4913066;29;20043;-83
2023/08/04 23:50:31;;;;;;;10.50;2.60;;;;;;;;;;4912947;29;20028;-84
2023/08/04 23:52:57;;;;;;;7.97;2.65;;;;;;;;;;4911793;29;20028;-84
2023/08/04 23:55:23;;;;;;;4.45;2.45;;;;;;;;;;4911890;29;20115;-84
2023/08/04 23:57:49;;;;;;;8.73;3.10;;;;;;;;;;4913195;29;20060;-88
